sensor_id;sensor_type;location;lat;lon;timestamp;temperature;humidity
18733;DHT22;9495;51.210;2.934;2023-05-10T00:01:02;14.40;99.90
18733;DHT22;9495;51.210;2.934;2023-05-10T00:03:32;14.30;99.90
18733;DHT22;9495;51.210;2.934;2023-05-10T00:06:01;14.30;99.90
18733;DHT22;9495;51.210;2.934;2023-05-10T00:08:29;14.20;99.90
18733;DHT22;9495;51.210;2.934;2023-05-10T00:10:58;14.20;99.90
18733;DHT22;9495;51.210;2.934;2023-05-10T00:13:27;14.10;99.90
18733;DHT22;9495;51.210;2.934;2023-05-10T00:15:56;14.20;99.90
18733;DHT22;9495;51.210;2.934;2023-05-10T00:18:24;14.00;99.90
18733;DHT22;9495;51.210;2.934;2023-05-10T00:20:54;14.00;99.90
18733;DHT22;9495;51.210;2.934;2023-05-10T00:23:22;14.00;99.90
18733;DHT22;9495;51.210;2.934;2023-05-10T00:25:51;14.00;99.90
18733;DHT22;9495;51.210;2.934;2023-05-10T00:28:19;14.00;99.90
18733;DHT22;9495;51.210;2.934;2023-05-10T00:30:47;14.10;99.90
18733;DHT22;9495;51.210;2.934;2023-05-10T00:33:16;14.00;99.90
18733;DHT22;9495;51.210;2.934;2023-05-10T00:35:45;13.90;99.90
18733;DHT22;9495;51.210;2.934;2023-05-10T00:38:15;14.00;99.90
18733;DHT22;9495;51.210;2.934;2023-05-10T00:40:43;14.20;99.90
18733;DHT22;9495;51.210;2.934;2023-05-10T00:43:12;14.20;99.90
18733;DHT22;9495;51.210;2.934;2023-05-10T00:45:40;14.20;99.90
18733;DHT22;9495;51.210;2.934;2023-05-10T00:48:08;14.20;99.90
18733;DHT22;9495;51.210;2.934;2023-05-10T00:50:37;14.30;99.90
18733;DHT22;9495;51.210;2.934;2023-05-10T00:53:07;14.50;99.90
18733;DHT22;9495;51.210;2.934;2023-05-10T00:55:37;14.30;99.90
18733;DHT22;9495;51.210;2.934;2023-05-10T00:58:06;14.30;99.90
18733;DHT22;9495;51.210;2.934;2023-05-10T01:00:35;14.20;99.90
18733;DHT22;9495;51.210;2.934;2023-05-10T01:03:04;14.20;99.90
18733;DHT22;9495;51.210;2.934;2023-05-10T01:05:33;14.20;99.90
18733;DHT22;9495;51.210;2.934;2023-05-10T01:08:02;14.20;99.90
18733;DHT22;9495;51.210;2.934;2023-05-10T01:10:30;14.20;99.90
18733;DHT22;9495;51.210;2.934;2023-05-10T01:13:01;14.20;99.90
18733;DHT22;9495;51.210;2.934;2023-05-10T01:15:30;14.20;99.90
18733;DHT22;9495;51.210;2.934;2023-05-10T01:18:00;14.20;99.90
18733;DHT22;9495;51.210;2.934;2023-05-10T01:20:34;14.20;99.90
18733;DHT22;9495;51.210;2.934;2023-05-10T01:23:35;14.20;99.90
18733;DHT22;9495;51.210;2.934;2023-05-10T01:29:42;14.10;99.90
18733;DHT22;9495;51.210;2.934;2023-05-10T01:32:30;14.20;99.90
18733;DHT22;9495;51.210;2.934;2023-05-10T01:35:02;14.20;99.90
18733;DHT22;9495;51.210;2.934;2023-05-10T01:37:41;14.10;99.90
18733;DHT22;9495;51.210;2.934;2023-05-10T01:40:17;14.10;99.90
18733;DHT22;9495;51.210;2.934;2023-05-10T01:42:51;14.00;99.90
18733;DHT22;9495;51.210;2.934;2023-05-10T01:45:26;14.00;99.90
18733;DHT22;9495;51.210;2.934;2023-05-10T01:48:05;14.00;99.90
18733;DHT22;9495;51.210;2.934;2023-05-10T01:50:36;13.90;99.90
18733;DHT22;9495;51.210;2.934;2023-05-10T01:53:07;13.90;99.90
18733;DHT22;9495;51.210;2.934;2023-05-10T01:55:41;13.90;99.90
18733;DHT22;9495;51.210;2.934;2023-05-10T01:58:13;13.80;99.90
18733;DHT22;9495;51.210;2.934;2023-05-10T02:00:43;13.70;99.90
18733;DHT22;9495;51.210;2.934;2023-05-10T02:03:15;13.80;99.90
18733;DHT22;9495;51.210;2.934;2023-05-10T02:05:46;13.80;99.90
18733;DHT22;9495;51.210;2.934;2023-05-10T02:08:17;13.80;99.90
18733;DHT22;9495;51.210;2.934;2023-05-10T02:10:49;13.70;99.90
18733;DHT22;9495;51.210;2.934;2023-05-10T02:13:19;13.70;99.90
18733;DHT22;9495;51.210;2.934;2023-05-10T02:15:48;13.70;99.90
18733;DHT22;9495;51.210;2.934;2023-05-10T02:18:19;13.70;99.90
18733;DHT22;9495;51.210;2.934;2023-05-10T02:20:48;13.70;99.90
18733;DHT22;9495;51.210;2.934;2023-05-10T02:23:18;13.70;99.90
18733;DHT22;9495;51.210;2.934;2023-05-10T02:25:48;13.60;99.90
18733;DHT22;9495;51.210;2.934;2023-05-10T02:28:18;13.60;99.90
18733;DHT22;9495;51.210;2.934;2023-05-10T02:30:47;13.60;99.90
18733;DHT22;9495;51.210;2.934;2023-05-10T02:33:16;13.60;99.90
18733;DHT22;9495;51.210;2.934;2023-05-10T02:35:48;13.40;99.90
18733;DHT22;9495;51.210;2.934;2023-05-10T02:38:18;13.40;99.90
18733;DHT22;9495;51.210;2.934;2023-05-10T02:40:49;13.50;99.90
18733;DHT22;9495;51.210;2.934;2023-05-10T02:43:18;13.50;99.90
18733;DHT22;9495;51.210;2.934;2023-05-10T02:45:51;13.60;99.90
18733;DHT22;9495;51.210;2.934;2023-05-10T02:48:19;13.60;99.90
18733;DHT22;9495;51.210;2.934;2023-05-10T02:50:51;13.70;99.90
18733;DHT22;9495;51.210;2.934;2023-05-10T02:53:22;13.70;99.90
18733;DHT22;9495;51.210;2.934;2023-05-10T02:55:52;13.60;99.90
18733;DHT22;9495;51.210;2.934;2023-05-10T02:58:25;13.70;99.90
18733;DHT22;9495;51.210;2.934;2023-05-10T03:00:53;13.50;99.90
18733;DHT22;9495;51.210;2.934;2023-05-10T03:03:22;13.50;99.90
18733;DHT22;9495;51.210;2.934;2023-05-10T03:05:51;13.60;99.90
18733;DHT22;9495;51.210;2.934;2023-05-10T03:08:23;13.60;99.90
18733;DHT22;9495;51.210;2.934;2023-05-10T03:10:59;13.60;99.90
18733;DHT22;9495;51.210;2.934;2023-05-10T03:13:33;13.60;99.90
18733;DHT22;9495;51.210;2.934;2023-05-10T03:16:08;13.60;99.90
18733;DHT22;9495;51.210;2.934;2023-05-10T03:18:41;13.50;99.90
18733;DHT22;9495;51.210;2.934;2023-05-10T03:21:13;13.40;99.90
18733;DHT22;9495;51.210;2.934;2023-05-10T03:23:45;13.40;99.90
18733;DHT22;9495;51.210;2.934;2023-05-10T03:26:17;13.40;99.90
18733;DHT22;9495;51.210;2.934;2023-05-10T03:28:49;13.30;99.90
18733;DHT22;9495;51.210;2.934;2023-05-10T03:31:18;13.30;99.90
18733;DHT22;9495;51.210;2.934;2023-05-10T03:33:47;13.30;99.90
18733;DHT22;9495;51.210;2.934;2023-05-10T03:36:17;13.40;99.90
18733;DHT22;9495;51.210;2.934;2023-05-10T03:38:46;13.40;99.90
18733;DHT22;9495;51.210;2.934;2023-05-10T03:41:14;13.40;99.90
18733;DHT22;9495;51.210;2.934;2023-05-10T03:43:42;13.30;99.90
18733;DHT22;9495;51.210;2.934;2023-05-10T03:46:11;13.30;99.90
18733;DHT22;9495;51.210;2.934;2023-05-10T03:48:39;13.30;99.90
18733;DHT22;9495;51.210;2.934;2023-05-10T03:51:08;13.30;99.90
18733;DHT22;9495;51.210;2.934;2023-05-10T03:53:37;13.20;99.90
18733;DHT22;9495;51.210;2.934;2023-05-10T03:56:06;13.30;99.90
18733;DHT22;9495;51.210;2.934;2023-05-10T03:58:34;13.30;99.90
18733;DHT22;9495;51.210;2.934;2023-05-10T04:01:03;13.20;99.90
18733;DHT22;9495;51.210;2.934;2023-05-10T04:03:31;13.20;99.90
18733;DHT22;9495;51.210;2.934;2023-05-10T04:06:00;13.20;99.90
18733;DHT22;9495;51.210;2.934;2023-05-10T04:08:29;13.30;99.90
18733;DHT22;9495;51.210;2.934;2023-05-10T04:11:06;13.30;99.90
18733;DHT22;9495;51.210;2.934;2023-05-10T04:13:35;13.30;99.90
18733;DHT22;9495;51.210;2.934;2023-05-10T04:16:04;13.30;99.90
18733;DHT22;9495;51.210;2.934;2023-05-10T04:18:33;13.20;99.90
18733;DHT22;9495;51.210;2.934;2023-05-10T04:21:01;13.20;99.90
18733;DHT22;9495;51.210;2.934;2023-05-10T04:23:30;13.20;99.90
18733;DHT22;9495;51.210;2.934;2023-05-10T04:26:01;13.20;99.90
18733;DHT22;9495;51.210;2.934;2023-05-10T04:28:31;13.10;99.90
18733;DHT22;9495;51.210;2.934;2023-05-10T04:31:03;13.10;99.90
18733;DHT22;9495;51.210;2.934;2023-05-10T04:33:32;13.10;99.90
18733;DHT22;9495;51.210;2.934;2023-05-10T04:36:01;13.10;99.90
18733;DHT22;9495;51.210;2.934;2023-05-10T04:38:30;13.10;99.90
18733;DHT22;9495;51.210;2.934;2023-05-10T04:41:04;13.10;99.90
18733;DHT22;9495;51.210;2.934;2023-05-10T04:43:35;13.10;99.90
18733;DHT22;9495;51.210;2.934;2023-05-10T04:46:04;13.10;99.90
18733;DHT22;9495;51.210;2.934;2023-05-10T04:48:33;13.10;99.90
18733;DHT22;9495;51.210;2.934;2023-05-10T04:51:01;13.00;99.90
18733;DHT22;9495;51.210;2.934;2023-05-10T04:53:31;13.10;99.90
18733;DHT22;9495;51.210;2.934;2023-05-10T04:56:00;13.10;99.90
18733;DHT22;9495;51.210;2.934;2023-05-10T04:58:28;13.10;99.90
18733;DHT22;9495;51.210;2.934;2023-05-10T05:01:05;13.10;99.90
18733;DHT22;9495;51.210;2.934;2023-05-10T05:03:33;13.10;99.90
18733;DHT22;9495;51.210;2.934;2023-05-10T05:06:02;13.10;99.90
18733;DHT22;9495;51.210;2.934;2023-05-10T05:08:30;13.10;99.90
18733;DHT22;9495;51.210;2.934;2023-05-10T05:10:59;13.10;99.90
18733;DHT22;9495;51.210;2.934;2023-05-10T05:13:27;13.10;99.90
18733;DHT22;9495;51.210;2.934;2023-05-10T05:15:59;13.10;99.90
18733;DHT22;9495;51.210;2.934;2023-05-10T05:18:28;13.10;99.90
18733;DHT22;9495;51.210;2.934;2023-05-10T05:20:56;13.10;99.90
18733;DHT22;9495;51.210;2.934;2023-05-10T05:23:25;13.10;99.90
18733;DHT22;9495;51.210;2.934;2023-05-10T05:25:54;13.10;99.90
18733;DHT22;9495;51.210;2.934;2023-05-10T05:28:22;13.10;99.90
18733;DHT22;9495;51.210;2.934;2023-05-10T05:30:50;13.10;99.90
18733;DHT22;9495;51.210;2.934;2023-05-10T05:33:20;13.10;99.90
18733;DHT22;9495;51.210;2.934;2023-05-10T05:35:49;13.10;99.90
18733;DHT22;9495;51.210;2.934;2023-05-10T05:38:18;13.10;99.90
18733;DHT22;9495;51.210;2.934;2023-05-10T05:40:46;13.10;99.90
18733;DHT22;9495;51.210;2.934;2023-05-10T05:43:14;13.10;99.90
18733;DHT22;9495;51.210;2.934;2023-05-10T05:45:43;13.10;99.90
18733;DHT22;9495;51.210;2.934;2023-05-10T05:48:11;13.20;99.90
18733;DHT22;9495;51.210;2.934;2023-05-10T05:50:41;13.20;99.90
18733;DHT22;9495;51.210;2.934;2023-05-10T05:53:10;13.20;99.90
18733;DHT22;9495;51.210;2.934;2023-05-10T05:55:38;13.30;99.90
18733;DHT22;9495;51.210;2.934;2023-05-10T05:58:07;13.30;99.90
18733;DHT22;9495;51.210;2.934;2023-05-10T06:00:35;13.40;99.90
18733;DHT22;9495;51.210;2.934;2023-05-10T06:03:03;13.50;99.90
18733;DHT22;9495;51.210;2.934;2023-05-10T06:05:33;13.60;99.90
18733;DHT22;9495;51.210;2.934;2023-05-10T06:08:03;13.60;99.90
18733;DHT22;9495;51.210;2.934;2023-05-10T06:10:32;13.80;99.90
18733;DHT22;9495;51.210;2.934;2023-05-10T06:13:00;13.70;99.90
18733;DHT22;9495;51.210;2.934;2023-05-10T06:15:29;13.80;99.90
18733;DHT22;9495;51.210;2.934;2023-05-10T06:17:57;13.70;99.90
18733;DHT22;9495;51.210;2.934;2023-05-10T06:20:26;13.70;99.90
18733;DHT22;9495;51.210;2.934;2023-05-10T06:22:54;13.70;99.90
18733;DHT22;9495;51.210;2.934;2023-05-10T06:25:24;13.80;99.90
18733;DHT22;9495;51.210;2.934;2023-05-10T06:27:53;13.80;99.90
18733;DHT22;9495;51.210;2.934;2023-05-10T06:30:25;13.80;99.90
18733;DHT22;9495;51.210;2.934;2023-05-10T06:32:55;13.90;99.90
18733;DHT22;9495;51.210;2.934;2023-05-10T06:35:24;13.80;99.90
18733;DHT22;9495;51.210;2.934;2023-05-10T06:37:53;13.80;99.90
18733;DHT22;9495;51.210;2.934;2023-05-10T06:40:22;13.80;99.90
18733;DHT22;9495;51.210;2.934;2023-05-10T06:42:51;13.90;99.90
18733;DHT22;9495;51.210;2.934;2023-05-10T06:45:20;13.90;99.90
18733;DHT22;9495;51.210;2.934;2023-05-10T06:47:48;13.90;99.90
18733;DHT22;9495;51.210;2.934;2023-05-10T06:50:17;13.80;99.90
18733;DHT22;9495;51.210;2.934;2023-05-10T06:52:45;13.90;99.90
18733;DHT22;9495;51.210;2.934;2023-05-10T06:55:14;13.90;99.90
18733;DHT22;9495;51.210;2.934;2023-05-10T06:57:43;13.90;99.90
18733;DHT22;9495;51.210;2.934;2023-05-10T07:00:13;13.80;99.90
18733;DHT22;9495;51.210;2.934;2023-05-10T07:02:42;13.90;99.90
18733;DHT22;9495;51.210;2.934;2023-05-10T07:05:11;13.90;99.90
18733;DHT22;9495;51.210;2.934;2023-05-10T07:07:40;13.80;99.90
18733;DHT22;9495;51.210;2.934;2023-05-10T07:10:09;13.80;99.90
18733;DHT22;9495;51.210;2.934;2023-05-10T07:12:38;13.80;99.90
18733;DHT22;9495;51.210;2.934;2023-05-10T07:15:08;13.80;99.90
18733;DHT22;9495;51.210;2.934;2023-05-10T07:17:37;14.10;99.90
18733;DHT22;9495;51.210;2.934;2023-05-10T07:20:09;14.60;99.90
18733;DHT22;9495;51.210;2.934;2023-05-10T07:22:38;15.10;99.90
18733;DHT22;9495;51.210;2.934;2023-05-10T07:25:07;15.20;99.90
18733;DHT22;9495;51.210;2.934;2023-05-10T07:27:35;15.60;99.90
18733;DHT22;9495;51.210;2.934;2023-05-10T07:30:05;16.00;99.90
18733;DHT22;9495;51.210;2.934;2023-05-10T07:32:33;16.10;99.90
18733;DHT22;9495;51.210;2.934;2023-05-10T07:35:03;15.90;99.90
18733;DHT22;9495;51.210;2.934;2023-05-10T07:37:32;16.30;99.90
18733;DHT22;9495;51.210;2.934;2023-05-10T07:40:01;15.50;99.90
18733;DHT22;9495;51.210;2.934;2023-05-10T07:42:29;15.10;99.90
18733;DHT22;9495;51.210;2.934;2023-05-10T07:44:58;14.90;99.90
18733;DHT22;9495;51.210;2.934;2023-05-10T07:47:26;14.70;99.90
18733;DHT22;9495;51.210;2.934;2023-05-10T07:49:54;14.20;99.90
18733;DHT22;9495;51.210;2.934;2023-05-10T07:52:24;13.90;99.90
18733;DHT22;9495;51.210;2.934;2023-05-10T07:54:53;13.90;99.90
18733;DHT22;9495;51.210;2.934;2023-05-10T07:57:23;13.80;99.90
18733;DHT22;9495;51.210;2.934;2023-05-10T07:59:52;13.80;99.90
18733;DHT22;9495;51.210;2.934;2023-05-10T08:02:20;13.80;99.90
18733;DHT22;9495;51.210;2.934;2023-05-10T08:04:49;13.70;99.90
18733;DHT22;9495;51.210;2.934;2023-05-10T08:07:17;13.80;99.90
18733;DHT22;9495;51.210;2.934;2023-05-10T08:09:47;13.80;99.90
18733;DHT22;9495;51.210;2.934;2023-05-10T08:12:16;13.80;99.90
18733;DHT22;9495;51.210;2.934;2023-05-10T08:14:44;13.80;99.90
18733;DHT22;9495;51.210;2.934;2023-05-10T08:17:13;13.90;99.90
18733;DHT22;9495;51.210;2.934;2023-05-10T08:19:41;13.80;99.90
18733;DHT22;9495;51.210;2.934;2023-05-10T08:22:10;13.90;99.90
18733;DHT22;9495;51.210;2.934;2023-05-10T08:24:38;13.90;99.90
18733;DHT22;9495;51.210;2.934;2023-05-10T08:27:10;14.00;99.90
18733;DHT22;9495;51.210;2.934;2023-05-10T08:29:38;14.10;99.90
18733;DHT22;9495;51.210;2.934;2023-05-10T08:32:16;13.90;99.90
18733;DHT22;9495;51.210;2.934;2023-05-10T08:34:45;14.10;99.90
18733;DHT22;9495;51.210;2.934;2023-05-10T08:37:13;14.10;99.90
18733;DHT22;9495;51.210;2.934;2023-05-10T08:39:42;14.10;99.90
18733;DHT22;9495;51.210;2.934;2023-05-10T08:42:11;13.90;99.90
18733;DHT22;9495;51.210;2.934;2023-05-10T08:44:40;13.90;99.90
18733;DHT22;9495;51.210;2.934;2023-05-10T08:47:10;14.00;99.90
18733;DHT22;9495;51.210;2.934;2023-05-10T08:49:40;14.00;99.90
18733;DHT22;9495;51.210;2.934;2023-05-10T08:52:11;14.00;99.90
18733;DHT22;9495;51.210;2.934;2023-05-10T08:54:41;14.10;99.90
18733;DHT22;9495;51.210;2.934;2023-05-10T08:57:12;14.00;99.90
18733;DHT22;9495;51.210;2.934;2023-05-10T08:59:40;14.00;99.90
18733;DHT22;9495;51.210;2.934;2023-05-10T09:02:10;14.00;99.90
18733;DHT22;9495;51.210;2.934;2023-05-10T09:04:40;14.10;99.90
18733;DHT22;9495;51.210;2.934;2023-05-10T09:07:09;14.20;99.90
18733;DHT22;9495;51.210;2.934;2023-05-10T09:09:38;14.20;99.90
18733;DHT22;9495;51.210;2.934;2023-05-10T09:12:08;14.10;99.90
18733;DHT22;9495;51.210;2.934;2023-05-10T09:14:39;14.10;99.90
18733;DHT22;9495;51.210;2.934;2023-05-10T09:17:08;14.10;99.90
18733;DHT22;9495;51.210;2.934;2023-05-10T09:19:38;14.20;99.90
18733;DHT22;9495;51.210;2.934;2023-05-10T09:22:06;14.20;99.90
18733;DHT22;9495;51.210;2.934;2023-05-10T09:24:35;14.30;99.90
18733;DHT22;9495;51.210;2.934;2023-05-10T09:27:03;14.50;99.90
18733;DHT22;9495;51.210;2.934;2023-05-10T09:29:41;14.30;99.90
18733;DHT22;9495;51.210;2.934;2023-05-10T09:32:10;14.20;99.90
18733;DHT22;9495;51.210;2.934;2023-05-10T09:34:40;14.30;99.90
18733;DHT22;9495;51.210;2.934;2023-05-10T09:37:09;14.60;99.90
18733;DHT22;9495;51.210;2.934;2023-05-10T09:39:38;14.50;99.90
18733;DHT22;9495;51.210;2.934;2023-05-10T09:42:07;14.60;99.90
18733;DHT22;9495;51.210;2.934;2023-05-10T09:44:36;14.70;99.90
18733;DHT22;9495;51.210;2.934;2023-05-10T09:47:06;14.70;99.90
18733;DHT22;9495;51.210;2.934;2023-05-10T09:49:34;14.60;99.90
18733;DHT22;9495;51.210;2.934;2023-05-10T09:52:04;14.50;99.90
18733;DHT22;9495;51.210;2.934;2023-05-10T09:54:33;14.60;99.90
18733;DHT22;9495;51.210;2.934;2023-05-10T09:57:02;14.60;99.90
18733;DHT22;9495;51.210;2.934;2023-05-10T09:59:33;14.60;99.90
18733;DHT22;9495;51.210;2.934;2023-05-10T10:02:02;14.70;99.90
18733;DHT22;9495;51.210;2.934;2023-05-10T10:04:32;14.70;99.90
18733;DHT22;9495;51.210;2.934;2023-05-10T10:07:07;14.70;99.90
18733;DHT22;9495;51.210;2.934;2023-05-10T10:09:35;14.80;99.90
18733;DHT22;9495;51.210;2.934;2023-05-10T10:12:04;15.00;99.90
18733;DHT22;9495;51.210;2.934;2023-05-10T10:14:34;15.00;99.90
18733;DHT22;9495;51.210;2.934;2023-05-10T10:17:02;15.20;99.90
18733;DHT22;9495;51.210;2.934;2023-05-10T10:19:36;15.10;99.90
18733;DHT22;9495;51.210;2.934;2023-05-10T10:22:05;15.00;99.90
18733;DHT22;9495;51.210;2.934;2023-05-10T10:24:33;15.20;99.90
18733;DHT22;9495;51.210;2.934;2023-05-10T10:27:08;15.50;99.90
18733;DHT22;9495;51.210;2.934;2023-05-10T10:29:44;15.20;99.90
18733;DHT22;9495;51.210;2.934;2023-05-10T10:32:22;15.30;99.90
18733;DHT22;9495;51.210;2.934;2023-05-10T10:34:54;15.30;99.90
18733;DHT22;9495;51.210;2.934;2023-05-10T10:37:23;15.30;99.90
18733;DHT22;9495;51.210;2.934;2023-05-10T10:39:52;15.30;99.90
18733;DHT22;9495;51.210;2.934;2023-05-10T10:42:43;15.40;99.90
18733;DHT22;9495;51.210;2.934;2023-05-10T10:45:13;15.20;99.90
18733;DHT22;9495;51.210;2.934;2023-05-10T10:47:42;15.50;99.90
18733;DHT22;9495;51.210;2.934;2023-05-10T10:50:12;15.80;99.90
18733;DHT22;9495;51.210;2.934;2023-05-10T10:52:43;15.50;99.90
18733;DHT22;9495;51.210;2.934;2023-05-10T10:55:13;15.60;99.90
18733;DHT22;9495;51.210;2.934;2023-05-10T10:57:46;15.60;99.90
18733;DHT22;9495;51.210;2.934;2023-05-10T11:00:24;15.90;99.90
18733;DHT22;9495;51.210;2.934;2023-05-10T11:02:55;15.30;99.90
18733;DHT22;9495;51.210;2.934;2023-05-10T11:05:47;15.60;99.90
18733;DHT22;9495;51.210;2.934;2023-05-10T11:08:18;15.40;99.90
18733;DHT22;9495;51.210;2.934;2023-05-10T11:11:03;15.40;99.90
18733;DHT22;9495;51.210;2.934;2023-05-10T11:13:40;15.40;99.90
18733;DHT22;9495;51.210;2.934;2023-05-10T11:16:14;15.40;99.90
18733;DHT22;9495;51.210;2.934;2023-05-10T11:18:54;15.50;99.90
18733;DHT22;9495;51.210;2.934;2023-05-10T11:21:26;15.70;99.90
18733;DHT22;9495;51.210;2.934;2023-05-10T11:23:55;16.10;99.90
18733;DHT22;9495;51.210;2.934;2023-05-10T11:26:25;16.40;99.90
18733;DHT22;9495;51.210;2.934;2023-05-10T11:28:54;16.10;99.90
18733;DHT22;9495;51.210;2.934;2023-05-10T11:31:23;15.80;99.90
18733;DHT22;9495;51.210;2.934;2023-05-10T11:33:55;16.20;99.90
18733;DHT22;9495;51.210;2.934;2023-05-10T11:36:26;16.40;99.90
18733;DHT22;9495;51.210;2.934;2023-05-10T11:38:55;16.40;99.90
18733;DHT22;9495;51.210;2.934;2023-05-10T11:41:25;16.20;99.90
18733;DHT22;9495;51.210;2.934;2023-05-10T11:43:54;15.80;99.90
18733;DHT22;9495;51.210;2.934;2023-05-10T11:46:25;15.50;99.90
18733;DHT22;9495;51.210;2.934;2023-05-10T11:48:56;15.40;99.90
18733;DHT22;9495;51.210;2.934;2023-05-10T11:51:26;15.80;99.90
18733;DHT22;9495;51.210;2.934;2023-05-10T11:53:55;15.60;99.90
18733;DHT22;9495;51.210;2.934;2023-05-10T11:56:24;15.70;99.90
18733;DHT22;9495;51.210;2.934;2023-05-10T11:58:55;15.90;99.90
18733;DHT22;9495;51.210;2.934;2023-05-10T12:01:24;16.40;99.90
18733;DHT22;9495;51.210;2.934;2023-05-10T12:03:54;16.40;99.90
18733;DHT22;9495;51.210;2.934;2023-05-10T12:06:29;16.60;99.90
18733;DHT22;9495;51.210;2.934;2023-05-10T12:08:59;16.40;99.90
18733;DHT22;9495;51.210;2.934;2023-05-10T12:11:28;16.00;99.90
18733;DHT22;9495;51.210;2.934;2023-05-10T12:13:56;16.00;99.90
18733;DHT22;9495;51.210;2.934;2023-05-10T12:16:26;16.40;99.90
18733;DHT22;9495;51.210;2.934;2023-05-10T12:18:58;16.50;99.90
18733;DHT22;9495;51.210;2.934;2023-05-10T12:21:28;16.50;99.90
18733;DHT22;9495;51.210;2.934;2023-05-10T12:24:00;16.10;99.90
18733;DHT22;9495;51.210;2.934;2023-05-10T12:26:29;16.40;99.90
18733;DHT22;9495;51.210;2.934;2023-05-10T12:29:12;16.70;99.90
18733;DHT22;9495;51.210;2.934;2023-05-10T12:31:52;16.70;99.90
18733;DHT22;9495;51.210;2.934;2023-05-10T12:34:30;16.60;99.90
18733;DHT22;9495;51.210;2.934;2023-05-10T12:37:00;17.20;99.90
18733;DHT22;9495;51.210;2.934;2023-05-10T12:39:38;16.80;99.90
18733;DHT22;9495;51.210;2.934;2023-05-10T12:42:07;17.20;99.90
18733;DHT22;9495;51.210;2.934;2023-05-10T12:44:36;17.10;99.90
18733;DHT22;9495;51.210;2.934;2023-05-10T12:47:04;17.70;99.90
18733;DHT22;9495;51.210;2.934;2023-05-10T12:49:33;17.30;99.90
18733;DHT22;9495;51.210;2.934;2023-05-10T12:52:03;17.70;99.90
18733;DHT22;9495;51.210;2.934;2023-05-10T12:54:32;17.90;99.90
18733;DHT22;9495;51.210;2.934;2023-05-10T12:57:00;17.60;99.90
18733;DHT22;9495;51.210;2.934;2023-05-10T12:59:29;17.50;99.90
18733;DHT22;9495;51.210;2.934;2023-05-10T13:01:57;18.10;99.90
18733;DHT22;9495;51.210;2.934;2023-05-10T13:04:26;18.30;99.90
18733;DHT22;9495;51.210;2.934;2023-05-10T13:06:54;18.50;99.90
18733;DHT22;9495;51.210;2.934;2023-05-10T13:09:27;18.50;99.90
18733;DHT22;9495;51.210;2.934;2023-05-10T13:11:56;18.20;99.90
18733;DHT22;9495;51.210;2.934;2023-05-10T13:14:25;17.90;99.90
18733;DHT22;9495;51.210;2.934;2023-05-10T13:16:53;17.80;99.90
18733;DHT22;9495;51.210;2.934;2023-05-10T13:19:22;18.00;99.90
18733;DHT22;9495;51.210;2.934;2023-05-10T13:21:50;18.30;99.90
18733;DHT22;9495;51.210;2.934;2023-05-10T13:24:19;17.70;99.90
18733;DHT22;9495;51.210;2.934;2023-05-10T13:26:49;17.70;99.90
18733;DHT22;9495;51.210;2.934;2023-05-10T13:29:18;18.00;99.90
18733;DHT22;9495;51.210;2.934;2023-05-10T13:31:48;18.40;99.90
18733;DHT22;9495;51.210;2.934;2023-05-10T13:34:16;17.80;99.90
18733;DHT22;9495;51.210;2.934;2023-05-10T13:36:47;17.70;99.90
18733;DHT22;9495;51.210;2.934;2023-05-10T13:39:16;17.80;99.90
18733;DHT22;9495;51.210;2.934;2023-05-10T13:41:44;18.00;99.90
18733;DHT22;9495;51.210;2.934;2023-05-10T13:44:14;18.80;99.90
18733;DHT22;9495;51.210;2.934;2023-05-10T13:46:43;18.90;99.90
18733;DHT22;9495;51.210;2.934;2023-05-10T13:49:12;18.70;99.90
18733;DHT22;9495;51.210;2.934;2023-05-10T13:51:40;18.10;99.90
18733;DHT22;9495;51.210;2.934;2023-05-10T13:54:09;17.90;99.90
18733;DHT22;9495;51.210;2.934;2023-05-10T13:56:39;18.20;99.90
18733;DHT22;9495;51.210;2.934;2023-05-10T13:59:08;18.00;99.90
18733;DHT22;9495;51.210;2.934;2023-05-10T14:01:38;18.70;99.90
18733;DHT22;9495;51.210;2.934;2023-05-10T14:04:06;18.50;99.90
18733;DHT22;9495;51.210;2.934;2023-05-10T14:06:37;18.70;99.90
18733;DHT22;9495;51.210;2.934;2023-05-10T14:09:07;18.80;99.90
18733;DHT22;9495;51.210;2.934;2023-05-10T14:11:36;19.00;99.90
18733;DHT22;9495;51.210;2.934;2023-05-10T14:14:08;19.10;99.90
18733;DHT22;9495;51.210;2.934;2023-05-10T14:16:41;18.60;99.90
18733;DHT22;9495;51.210;2.934;2023-05-10T14:19:10;18.10;99.90
18733;DHT22;9495;51.210;2.934;2023-05-10T14:21:39;17.70;99.90
18733;DHT22;9495;51.210;2.934;2023-05-10T14:24:08;17.40;99.90
18733;DHT22;9495;51.210;2.934;2023-05-10T14:26:36;18.20;99.90
18733;DHT22;9495;51.210;2.934;2023-05-10T14:29:05;18.00;99.90
18733;DHT22;9495;51.210;2.934;2023-05-10T14:31:37;18.20;99.90
18733;DHT22;9495;51.210;2.934;2023-05-10T14:34:06;18.10;99.90
18733;DHT22;9495;51.210;2.934;2023-05-10T14:36:35;17.50;99.90
18733;DHT22;9495;51.210;2.934;2023-05-10T14:39:03;17.50;99.90
18733;DHT22;9495;51.210;2.934;2023-05-10T14:41:33;17.70;99.90
18733;DHT22;9495;51.210;2.934;2023-05-10T14:44:02;18.10;99.90
18733;DHT22;9495;51.210;2.934;2023-05-10T14:46:31;17.90;99.90
18733;DHT22;9495;51.210;2.934;2023-05-10T14:49:01;18.30;99.90
18733;DHT22;9495;51.210;2.934;2023-05-10T14:51:29;17.80;99.90
18733;DHT22;9495;51.210;2.934;2023-05-10T14:53:58;18.10;99.90
18733;DHT22;9495;51.210;2.934;2023-05-10T14:56:27;17.60;99.90
18733;DHT22;9495;51.210;2.934;2023-05-10T14:58:56;17.40;99.90
18733;DHT22;9495;51.210;2.934;2023-05-10T15:01:25;17.30;99.90
18733;DHT22;9495;51.210;2.934;2023-05-10T15:03:54;17.10;99.90
18733;DHT22;9495;51.210;2.934;2023-05-10T15:06:30;17.30;99.90
18733;DHT22;9495;51.210;2.934;2023-05-10T15:08:59;17.10;99.90
18733;DHT22;9495;51.210;2.934;2023-05-10T15:11:27;17.20;99.90
18733;DHT22;9495;51.210;2.934;2023-05-10T15:13:56;18.20;99.90
18733;DHT22;9495;51.210;2.934;2023-05-10T15:16:24;18.60;99.90
18733;DHT22;9495;51.210;2.934;2023-05-10T15:18:53;18.80;99.90
18733;DHT22;9495;51.210;2.934;2023-05-10T15:21:23;18.50;99.90
18733;DHT22;9495;51.210;2.934;2023-05-10T15:23:52;18.00;99.90
18733;DHT22;9495;51.210;2.934;2023-05-10T15:26:20;17.70;99.90
18733;DHT22;9495;51.210;2.934;2023-05-10T15:28:49;17.80;99.90
18733;DHT22;9495;51.210;2.934;2023-05-10T15:31:17;18.50;99.90
18733;DHT22;9495;51.210;2.934;2023-05-10T15:33:46;19.10;99.90
18733;DHT22;9495;51.210;2.934;2023-05-10T15:36:14;18.90;99.90
18733;DHT22;9495;51.210;2.934;2023-05-10T15:38:45;19.00;99.90
18733;DHT22;9495;51.210;2.934;2023-05-10T15:41:14;18.50;99.90
18733;DHT22;9495;51.210;2.934;2023-05-10T15:43:42;18.60;99.90
18733;DHT22;9495;51.210;2.934;2023-05-10T15:46:11;18.70;99.90
18733;DHT22;9495;51.210;2.934;2023-05-10T15:48:39;19.00;99.90
18733;DHT22;9495;51.210;2.934;2023-05-10T15:51:08;19.40;99.90
18733;DHT22;9495;51.210;2.934;2023-05-10T15:53:36;19.20;99.90
18733;DHT22;9495;51.210;2.934;2023-05-10T15:56:20;19.60;99.90
18733;DHT22;9495;51.210;2.934;2023-05-10T15:58:49;18.90;99.90
18733;DHT22;9495;51.210;2.934;2023-05-10T16:01:17;19.00;99.90
18733;DHT22;9495;51.210;2.934;2023-05-10T16:03:46;18.80;99.90
18733;DHT22;9495;51.210;2.934;2023-05-10T16:06:14;19.20;99.90